Terminal Aerodrome Forecast
Issued by NWS Lake Charles, LA

Home | Current Version | Previous Version | Text Only | Print | Product List | Glossary On
Versions: 1 2 3 4 5 6 7 8 9 10 11 12 13 14 15
308
FTUS44 KLCH 261123
TAFARA
TAF
KARA 261123Z 2612/2712 13003KT P6SM SKC
      TEMPO 2612/2614 4SM BR
     FM261400 16010KT P6SM VCSH SCT018 BKN025 BKN050
     FM270100 16005KT P6SM BKN025=

USA.gov is the U.S. government's official web portal to all federal, state and local government web resources and services.